sensor_id;sensor_type;location;lat;lon;timestamp;P1;durP1;ratioP1;P2;durP2;ratioP2
8044;SDS011;4065;48.754;9.982;2022-11-20T00:00:24;9.48;;;8.43;;
8044;SDS011;4065;48.754;9.982;2022-11-20T00:03:26;9.52;;;8.18;;
8044;SDS011;4065;48.754;9.982;2022-11-20T00:06:29;10.27;;;8.73;;
8044;SDS011;4065;48.754;9.982;2022-11-20T00:09:31;10.57;;;9.48;;
8044;SDS011;4065;48.754;9.982;2022-11-20T00:12:32;10.90;;;9.30;;
8044;SDS011;4065;48.754;9.982;2022-11-20T00:15:34;11.45;;;8.43;;
8044;SDS011;4065;48.754;9.982;2022-11-20T00:18:35;8.98;;;8.07;;
8044;SDS011;4065;48.754;9.982;2022-11-20T00:21:39;11.02;;;8.57;;
8044;SDS011;4065;48.754;9.982;2022-11-20T00:24:40;12.25;;;7.80;;
8044;SDS011;4065;48.754;9.982;2022-11-20T00:27:44;8.90;;;8.00;;
8044;SDS011;4065;48.754;9.982;2022-11-20T00:30:45;9.88;;;8.40;;
8044;SDS011;4065;48.754;9.982;2022-11-20T00:33:47;13.57;;;10.00;;
8044;SDS011;4065;48.754;9.982;2022-11-20T00:36:50;14.73;;;9.13;;
8044;SDS011;4065;48.754;9.982;2022-11-20T00:39:51;9.43;;;8.20;;
8044;SDS011;4065;48.754;9.982;2022-11-20T00:42:53;11.90;;;8.35;;
8044;SDS011;4065;48.754;9.982;2022-11-20T00:45:58;11.30;;;8.30;;
8044;SDS011;4065;48.754;9.982;2022-11-20T00:48:59;9.90;;;8.70;;
8044;SDS011;4065;48.754;9.982;2022-11-20T00:52:02;9.73;;;8.57;;
8044;SDS011;4065;48.754;9.982;2022-11-20T00:55:04;14.35;;;10.00;;
8044;SDS011;4065;48.754;9.982;2022-11-20T00:58:07;9.80;;;8.57;;
8044;SDS011;4065;48.754;9.982;2022-11-20T01:01:11;11.27;;;8.25;;
8044;SDS011;4065;48.754;9.982;2022-11-20T01:04:15;9.38;;;7.57;;
8044;SDS011;4065;48.754;9.982;2022-11-20T01:07:18;9.40;;;8.20;;
8044;SDS011;4065;48.754;9.982;2022-11-20T01:10:20;8.70;;;7.57;;
8044;SDS011;4065;48.754;9.982;2022-11-20T01:13:21;9.88;;;8.10;;
8044;SDS011;4065;48.754;9.982;2022-11-20T01:16:39;8.70;;;7.28;;
8044;SDS011;4065;48.754;9.982;2022-11-20T01:19:42;7.80;;;7.00;;
8044;SDS011;4065;48.754;9.982;2022-11-20T01:22:45;9.38;;;8.07;;
8044;SDS011;4065;48.754;9.982;2022-11-20T01:25:46;9.18;;;8.18;;
8044;SDS011;4065;48.754;9.982;2022-11-20T01:28:48;9.90;;;7.13;;
8044;SDS011;4065;48.754;9.982;2022-11-20T01:31:50;8.20;;;6.57;;
8044;SDS011;4065;48.754;9.982;2022-11-20T01:34:52;8.90;;;8.00;;
8044;SDS011;4065;48.754;9.982;2022-11-20T01:37:55;8.35;;;7.38;;
8044;SDS011;4065;48.754;9.982;2022-11-20T01:40:56;7.93;;;6.90;;
8044;SDS011;4065;48.754;9.982;2022-11-20T01:43:58;9.63;;;7.55;;
8044;SDS011;4065;48.754;9.982;2022-11-20T01:46:59;8.23;;;7.05;;
8044;SDS011;4065;48.754;9.982;2022-11-20T01:50:04;10.43;;;8.30;;
8044;SDS011;4065;48.754;9.982;2022-11-20T01:53:09;8.98;;;7.07;;
8044;SDS011;4065;48.754;9.982;2022-11-20T01:56:14;11.63;;;7.32;;
8044;SDS011;4065;48.754;9.982;2022-11-20T01:59:16;11.48;;;7.07;;
8044;SDS011;4065;48.754;9.982;2022-11-20T02:02:19;8.43;;;7.53;;
8044;SDS011;4065;48.754;9.982;2022-11-20T02:05:22;7.90;;;7.10;;
8044;SDS011;4065;48.754;9.982;2022-11-20T02:08:26;9.05;;;6.40;;
8044;SDS011;4065;48.754;9.982;2022-11-20T02:11:29;7.50;;;6.80;;
8044;SDS011;4065;48.754;9.982;2022-11-20T02:14:31;8.32;;;7.30;;
8044;SDS011;4065;48.754;9.982;2022-11-20T02:17:32;7.53;;;6.75;;
8044;SDS011;4065;48.754;9.982;2022-11-20T02:20:33;6.93;;;6.22;;
8044;SDS011;4065;48.754;9.982;2022-11-20T02:23:38;7.82;;;6.82;;
8044;SDS011;4065;48.754;9.982;2022-11-20T02:26:44;6.85;;;6.25;;
8044;SDS011;4065;48.754;9.982;2022-11-20T02:29:49;7.28;;;6.55;;
8044;SDS011;4065;48.754;9.982;2022-11-20T02:32:53;7.55;;;6.82;;
8044;SDS011;4065;48.754;9.982;2022-11-20T02:35:55;7.72;;;6.25;;
8044;SDS011;4065;48.754;9.982;2022-11-20T02:38:56;7.32;;;6.45;;
8044;SDS011;4065;48.754;9.982;2022-11-20T02:42:00;6.55;;;5.95;;
8044;SDS011;4065;48.754;9.982;2022-11-20T02:45:03;6.45;;;5.85;;
8044;SDS011;4065;48.754;9.982;2022-11-20T02:48:05;7.65;;;6.50;;
8044;SDS011;4065;48.754;9.982;2022-11-20T02:51:08;6.38;;;5.72;;
8044;SDS011;4065;48.754;9.982;2022-11-20T02:54:09;7.25;;;6.35;;
8044;SDS011;4065;48.754;9.982;2022-11-20T02:57:12;7.05;;;5.70;;
8044;SDS011;4065;48.754;9.982;2022-11-20T03:00:14;6.15;;;5.57;;
8044;SDS011;4065;48.754;9.982;2022-11-20T03:03:16;6.72;;;6.05;;
8044;SDS011;4065;48.754;9.982;2022-11-20T03:06:17;7.35;;;5.78;;
8044;SDS011;4065;48.754;9.982;2022-11-20T03:09:19;6.47;;;5.88;;
8044;SDS011;4065;48.754;9.982;2022-11-20T03:12:22;6.47;;;5.90;;
8044;SDS011;4065;48.754;9.982;2022-11-20T03:15:24;7.20;;;6.15;;
8044;SDS011;4065;48.754;9.982;2022-11-20T03:18:27;7.15;;;6.20;;
8044;SDS011;4065;48.754;9.982;2022-11-20T03:21:29;7.65;;;6.35;;
8044;SDS011;4065;48.754;9.982;2022-11-20T03:24:31;6.68;;;5.72;;
8044;SDS011;4065;48.754;9.982;2022-11-20T03:27:34;8.32;;;6.28;;
8044;SDS011;4065;48.754;9.982;2022-11-20T03:30:36;6.97;;;6.38;;
8044;SDS011;4065;48.754;9.982;2022-11-20T03:33:37;8.27;;;6.25;;
8044;SDS011;4065;48.754;9.982;2022-11-20T03:36:39;8.32;;;7.15;;
8044;SDS011;4065;48.754;9.982;2022-11-20T03:39:41;7.60;;;6.82;;
8044;SDS011;4065;48.754;9.982;2022-11-20T03:42:44;7.85;;;7.15;;
8044;SDS011;4065;48.754;9.982;2022-11-20T03:45:46;8.05;;;6.40;;
8044;SDS011;4065;48.754;9.982;2022-11-20T03:48:48;7.30;;;6.70;;
8044;SDS011;4065;48.754;9.982;2022-11-20T03:51:50;7.40;;;6.80;;
8044;SDS011;4065;48.754;9.982;2022-11-20T03:54:51;6.75;;;6.07;;
8044;SDS011;4065;48.754;9.982;2022-11-20T03:57:54;7.70;;;7.10;;
8044;SDS011;4065;48.754;9.982;2022-11-20T04:00:56;7.68;;;6.47;;
8044;SDS011;4065;48.754;9.982;2022-11-20T04:03:57;9.57;;;6.50;;
8044;SDS011;4065;48.754;9.982;2022-11-20T04:06:59;7.18;;;6.50;;
8044;SDS011;4065;48.754;9.982;2022-11-20T04:10:01;6.80;;;6.20;;
8044;SDS011;4065;48.754;9.982;2022-11-20T04:13:03;6.93;;;6.32;;
8044;SDS011;4065;48.754;9.982;2022-11-20T04:16:05;7.22;;;6.40;;
8044;SDS011;4065;48.754;9.982;2022-11-20T04:19:09;7.68;;;6.28;;
8044;SDS011;4065;48.754;9.982;2022-11-20T04:22:12;6.30;;;5.32;;
8044;SDS011;4065;48.754;9.982;2022-11-20T04:25:14;7.20;;;6.18;;
8044;SDS011;4065;48.754;9.982;2022-11-20T04:28:16;6.80;;;6.10;;
8044;SDS011;4065;48.754;9.982;2022-11-20T04:31:20;7.18;;;6.57;;
8044;SDS011;4065;48.754;9.982;2022-11-20T04:34:22;7.05;;;6.15;;
8044;SDS011;4065;48.754;9.982;2022-11-20T04:37:24;6.97;;;6.35;;
8044;SDS011;4065;48.754;9.982;2022-11-20T04:40:25;7.53;;;6.93;;
8044;SDS011;4065;48.754;9.982;2022-11-20T04:43:29;7.30;;;6.60;;
8044;SDS011;4065;48.754;9.982;2022-11-20T04:46:31;8.32;;;7.53;;
8044;SDS011;4065;48.754;9.982;2022-11-20T04:49:34;8.02;;;7.15;;
8044;SDS011;4065;48.754;9.982;2022-11-20T04:52:35;7.43;;;6.78;;
8044;SDS011;4065;48.754;9.982;2022-11-20T04:55:37;7.82;;;6.90;;
8044;SDS011;4065;48.754;9.982;2022-11-20T04:58:40;7.35;;;6.45;;
8044;SDS011;4065;48.754;9.982;2022-11-20T05:01:42;7.05;;;6.35;;
8044;SDS011;4065;48.754;9.982;2022-11-20T05:04:44;6.70;;;6.10;;
8044;SDS011;4065;48.754;9.982;2022-11-20T05:07:45;7.88;;;6.80;;
8044;SDS011;4065;48.754;9.982;2022-11-20T05:10:47;7.78;;;7.07;;
8044;SDS011;4065;48.754;9.982;2022-11-20T05:13:50;7.70;;;6.90;;
8044;SDS011;4065;48.754;9.982;2022-11-20T05:16:52;8.35;;;6.65;;
8044;SDS011;4065;48.754;9.982;2022-11-20T05:19:54;8.93;;;7.13;;
8044;SDS011;4065;48.754;9.982;2022-11-20T05:22:56;7.93;;;7.10;;
8044;SDS011;4065;48.754;9.982;2022-11-20T05:25:58;7.45;;;6.63;;
8044;SDS011;4065;48.754;9.982;2022-11-20T05:29:01;7.90;;;7.10;;
8044;SDS011;4065;48.754;9.982;2022-11-20T05:32:02;8.05;;;6.43;;
8044;SDS011;4065;48.754;9.982;2022-11-20T05:35:06;9.07;;;6.88;;
8044;SDS011;4065;48.754;9.982;2022-11-20T05:38:08;8.30;;;6.57;;
8044;SDS011;4065;48.754;9.982;2022-11-20T05:41:10;7.28;;;6.57;;
8044;SDS011;4065;48.754;9.982;2022-11-20T05:44:14;7.40;;;6.70;;
8044;SDS011;4065;48.754;9.982;2022-11-20T05:47:16;7.75;;;6.50;;
8044;SDS011;4065;48.754;9.982;2022-11-20T05:50:17;10.65;;;6.90;;
8044;SDS011;4065;48.754;9.982;2022-11-20T05:53:19;8.68;;;6.63;;
8044;SDS011;4065;48.754;9.982;2022-11-20T05:56:21;7.15;;;6.50;;
8044;SDS011;4065;48.754;9.982;2022-11-20T05:59:24;7.70;;;6.55;;
8044;SDS011;4065;48.754;9.982;2022-11-20T06:02:25;9.70;;;6.70;;
8044;SDS011;4065;48.754;9.982;2022-11-20T06:05:27;6.35;;;5.85;;
8044;SDS011;4065;48.754;9.982;2022-11-20T06:08:29;7.40;;;6.43;;
8044;SDS011;4065;48.754;9.982;2022-11-20T06:11:30;6.45;;;5.85;;
8044;SDS011;4065;48.754;9.982;2022-11-20T06:14:33;7.60;;;6.38;;
8044;SDS011;4065;48.754;9.982;2022-11-20T06:17:35;7.90;;;7.10;;
8044;SDS011;4065;48.754;9.982;2022-11-20T06:20:37;8.70;;;7.80;;
8044;SDS011;4065;48.754;9.982;2022-11-20T06:23:38;9.18;;;8.10;;
8044;SDS011;4065;48.754;9.982;2022-11-20T06:26:40;12.55;;;9.52;;
8044;SDS011;4065;48.754;9.982;2022-11-20T06:29:46;8.50;;;7.53;;
8044;SDS011;4065;48.754;9.982;2022-11-20T06:32:47;7.65;;;6.95;;
8044;SDS011;4065;48.754;9.982;2022-11-20T06:35:49;7.93;;;7.13;;
8044;SDS011;4065;48.754;9.982;2022-11-20T06:38:51;6.20;;;5.60;;
8044;SDS011;4065;48.754;9.982;2022-11-20T06:41:52;7.05;;;6.35;;
8044;SDS011;4065;48.754;9.982;2022-11-20T06:44:55;8.07;;;6.03;;
8044;SDS011;4065;48.754;9.982;2022-11-20T06:47:57;7.85;;;6.25;;
8044;SDS011;4065;48.754;9.982;2022-11-20T06:50:58;6.95;;;6.00;;
8044;SDS011;4065;48.754;9.982;2022-11-20T06:54:00;6.53;;;5.93;;
8044;SDS011;4065;48.754;9.982;2022-11-20T06:57:02;8.57;;;7.53;;
8044;SDS011;4065;48.754;9.982;2022-11-20T07:00:05;7.72;;;5.88;;
8044;SDS011;4065;48.754;9.982;2022-11-20T07:03:08;9.02;;;6.90;;
8044;SDS011;4065;48.754;9.982;2022-11-20T07:06:10;6.60;;;6.00;;
8044;SDS011;4065;48.754;9.982;2022-11-20T07:09:12;6.18;;;5.57;;
8044;SDS011;4065;48.754;9.982;2022-11-20T07:12:13;7.55;;;6.28;;
8044;SDS011;4065;48.754;9.982;2022-11-20T07:15:16;8.82;;;6.40;;
8044;SDS011;4065;48.754;9.982;2022-11-20T07:18:18;6.05;;;5.45;;
8044;SDS011;4065;48.754;9.982;2022-11-20T07:21:20;6.35;;;5.55;;
8044;SDS011;4065;48.754;9.982;2022-11-20T07:24:21;6.10;;;5.60;;
8044;SDS011;4065;48.754;9.982;2022-11-20T07:27:23;5.85;;;5.25;;
8044;SDS011;4065;48.754;9.982;2022-11-20T07:30:26;6.10;;;5.07;;
8044;SDS011;4065;48.754;9.982;2022-11-20T07:33:28;6.47;;;5.45;;
8044;SDS011;4065;48.754;9.982;2022-11-20T07:36:29;5.68;;;5.18;;
8044;SDS011;4065;48.754;9.982;2022-11-20T07:39:31;6.13;;;5.53;;
8044;SDS011;4065;48.754;9.982;2022-11-20T07:42:32;7.15;;;5.40;;
8044;SDS011;4065;48.754;9.982;2022-11-20T07:45:35;5.65;;;5.15;;
8044;SDS011;4065;48.754;9.982;2022-11-20T07:48:37;5.57;;;5.07;;
8044;SDS011;4065;48.754;9.982;2022-11-20T07:51:39;6.28;;;5.68;;
8044;SDS011;4065;48.754;9.982;2022-11-20T07:54:41;5.70;;;5.20;;
8044;SDS011;4065;48.754;9.982;2022-11-20T07:57:42;6.25;;;5.38;;
8044;SDS011;4065;48.754;9.982;2022-11-20T08:00:48;6.22;;;5.63;;
8044;SDS011;4065;48.754;9.982;2022-11-20T08:03:49;5.72;;;5.22;;
8044;SDS011;4065;48.754;9.982;2022-11-20T08:06:54;5.50;;;5.00;;
8044;SDS011;4065;48.754;9.982;2022-11-20T08:09:56;6.93;;;5.40;;
8044;SDS011;4065;48.754;9.982;2022-11-20T08:12:59;5.78;;;5.25;;
8044;SDS011;4065;48.754;9.982;2022-11-20T08:16:28;5.60;;;5.10;;
8044;SDS011;4065;48.754;9.982;2022-11-20T08:19:30;5.15;;;4.75;;
8044;SDS011;4065;48.754;9.982;2022-11-20T08:22:32;5.15;;;4.75;;
8044;SDS011;4065;48.754;9.982;2022-11-20T08:25:35;6.20;;;5.28;;
8044;SDS011;4065;48.754;9.982;2022-11-20T08:28:40;5.35;;;4.90;;
8044;SDS011;4065;48.754;9.982;2022-11-20T08:31:49;5.30;;;4.80;;
8044;SDS011;4065;48.754;9.982;2022-11-20T08:34:53;5.47;;;5.07;;
8044;SDS011;4065;48.754;9.982;2022-11-20T08:37:58;4.82;;;4.43;;
8044;SDS011;4065;48.754;9.982;2022-11-20T08:41:02;6.57;;;5.28;;
8044;SDS011;4065;48.754;9.982;2022-11-20T08:44:19;6.75;;;5.63;;
8044;SDS011;4065;48.754;9.982;2022-11-20T08:47:24;7.93;;;5.65;;
8044;SDS011;4065;48.754;9.982;2022-11-20T08:50:26;31.55;;;22.63;;
8044;SDS011;4065;48.754;9.982;2022-11-20T08:53:28;9.05;;;7.97;;
8044;SDS011;4065;48.754;9.982;2022-11-20T08:56:34;9.25;;;8.32;;
8044;SDS011;4065;48.754;9.982;2022-11-20T08:59:36;19.42;;;17.73;;
8044;SDS011;4065;48.754;9.982;2022-11-20T09:02:40;15.73;;;14.13;;
8044;SDS011;4065;48.754;9.982;2022-11-20T09:05:42;11.35;;;10.25;;
8044;SDS011;4065;48.754;9.982;2022-11-20T09:08:47;9.32;;;8.40;;
8044;SDS011;4065;48.754;9.982;2022-11-20T09:11:54;8.50;;;7.70;;
8044;SDS011;4065;48.754;9.982;2022-11-20T09:14:57;7.43;;;6.80;;
8044;SDS011;4065;48.754;9.982;2022-11-20T09:18:03;8.90;;;7.32;;
8044;SDS011;4065;48.754;9.982;2022-11-20T09:21:08;15.55;;;14.15;;
8044;SDS011;4065;48.754;9.982;2022-11-20T09:24:12;8.77;;;7.97;;
8044;SDS011;4065;48.754;9.982;2022-11-20T09:27:16;7.50;;;6.13;;
8044;SDS011;4065;48.754;9.982;2022-11-20T09:30:21;8.80;;;7.00;;
8044;SDS011;4065;48.754;9.982;2022-11-20T09:33:24;6.47;;;5.88;;
8044;SDS011;4065;48.754;9.982;2022-11-20T09:36:26;5.85;;;5.35;;
8044;SDS011;4065;48.754;9.982;2022-11-20T09:39:28;5.13;;;4.63;;
8044;SDS011;4065;48.754;9.982;2022-11-20T09:42:35;4.80;;;4.30;;
8044;SDS011;4065;48.754;9.982;2022-11-20T09:45:43;5.22;;;4.82;;
8044;SDS011;4065;48.754;9.982;2022-11-20T09:49:02;4.78;;;4.38;;
8044;SDS011;4065;48.754;9.982;2022-11-20T09:52:15;4.80;;;4.40;;
8044;SDS011;4065;48.754;9.982;2022-11-20T09:55:23;4.35;;;3.95;;
8044;SDS011;4065;48.754;9.982;2022-11-20T09:58:27;4.32;;;4.00;;
8044;SDS011;4065;48.754;9.982;2022-11-20T10:01:39;4.07;;;3.65;;
8044;SDS011;4065;48.754;9.982;2022-11-20T10:04:45;3.67;;;3.38;;
8044;SDS011;4065;48.754;9.982;2022-11-20T10:07:55;3.97;;;3.67;;
8044;SDS011;4065;48.754;9.982;2022-11-20T10:11:04;4.40;;;4.10;;
8044;SDS011;4065;48.754;9.982;2022-11-20T10:14:11;5.93;;;5.32;;
8044;SDS011;4065;48.754;9.982;2022-11-20T10:17:22;6.78;;;6.18;;
8044;SDS011;4065;48.754;9.982;2022-11-20T10:20:35;7.00;;;6.40;;
8044;SDS011;4065;48.754;9.982;2022-11-20T10:23:54;4.88;;;4.47;;
8044;SDS011;4065;48.754;9.982;2022-11-20T10:27:30;5.20;;;4.72;;
8044;SDS011;4065;48.754;9.982;2022-11-20T10:30:48;4.47;;;4.07;;
8044;SDS011;4065;48.754;9.982;2022-11-20T10:33:59;4.60;;;4.30;;
8044;SDS011;4065;48.754;9.982;2022-11-20T10:37:09;4.03;;;3.72;;
8044;SDS011;4065;48.754;9.982;2022-11-20T10:40:19;4.60;;;4.20;;
8044;SDS011;4065;48.754;9.982;2022-11-20T10:43:32;4.18;;;3.88;;
8044;SDS011;4065;48.754;9.982;2022-11-20T10:46:36;4.32;;;3.92;;
8044;SDS011;4065;48.754;9.982;2022-11-20T10:49:40;6.68;;;5.10;;
8044;SDS011;4065;48.754;9.982;2022-11-20T10:52:46;5.00;;;4.50;;
8044;SDS011;4065;48.754;9.982;2022-11-20T10:55:56;7.18;;;5.35;;
8044;SDS011;4065;48.754;9.982;2022-11-20T10:59:04;5.20;;;4.70;;
8044;SDS011;4065;48.754;9.982;2022-11-20T11:02:23;4.63;;;4.22;;
8044;SDS011;4065;48.754;9.982;2022-11-20T11:05:33;5.20;;;4.70;;
8044;SDS011;4065;48.754;9.982;2022-11-20T11:08:39;5.10;;;4.60;;
8044;SDS011;4065;48.754;9.982;2022-11-20T11:11:41;4.70;;;4.28;;
8044;SDS011;4065;48.754;9.982;2022-11-20T11:14:47;5.53;;;5.03;;
8044;SDS011;4065;48.754;9.982;2022-11-20T11:17:50;6.30;;;5.32;;
8044;SDS011;4065;48.754;9.982;2022-11-20T11:20:52;7.43;;;6.35;;
8044;SDS011;4065;48.754;9.982;2022-11-20T11:23:59;6.65;;;5.63;;
8044;SDS011;4065;48.754;9.982;2022-11-20T11:27:15;6.07;;;5.00;;
8044;SDS011;4065;48.754;9.982;2022-11-20T11:30:19;5.10;;;4.70;;
8044;SDS011;4065;48.754;9.982;2022-11-20T11:33:22;4.43;;;4.05;;
8044;SDS011;4065;48.754;9.982;2022-11-20T11:36:25;4.70;;;4.38;;
8044;SDS011;4065;48.754;9.982;2022-11-20T11:39:28;4.30;;;3.90;;
8044;SDS011;4065;48.754;9.982;2022-11-20T11:42:34;5.68;;;5.20;;
8044;SDS011;4065;48.754;9.982;2022-11-20T11:45:36;4.63;;;4.30;;
8044;SDS011;4065;48.754;9.982;2022-11-20T11:48:37;4.43;;;4.10;;
8044;SDS011;4065;48.754;9.982;2022-11-20T11:51:41;4.10;;;3.80;;
8044;SDS011;4065;48.754;9.982;2022-11-20T11:55:00;3.83;;;3.47;;
8044;SDS011;4065;48.754;9.982;2022-11-20T11:58:11;4.68;;;4.35;;
8044;SDS011;4065;48.754;9.982;2022-11-20T12:01:24;5.65;;;4.55;;
8044;SDS011;4065;48.754;9.982;2022-11-20T12:04:37;4.78;;;3.60;;
8044;SDS011;4065;48.754;9.982;2022-11-20T12:07:45;3.92;;;3.22;;
8044;SDS011;4065;48.754;9.982;2022-11-20T12:10:50;3.35;;;3.15;;
8044;SDS011;4065;48.754;9.982;2022-11-20T12:13:57;3.60;;;3.30;;
8044;SDS011;4065;48.754;9.982;2022-11-20T12:17:03;3.53;;;3.33;;
8044;SDS011;4065;48.754;9.982;2022-11-20T12:20:10;4.03;;;3.72;;
8044;SDS011;4065;48.754;9.982;2022-11-20T12:23:21;5.60;;;5.10;;
8044;SDS011;4065;48.754;9.982;2022-11-20T12:26:32;4.53;;;4.10;;
8044;SDS011;4065;48.754;9.982;2022-11-20T12:29:46;4.07;;;3.72;;
8044;SDS011;4065;48.754;9.982;2022-11-20T12:32:57;5.18;;;4.60;;
8044;SDS011;4065;48.754;9.982;2022-11-20T12:36:12;4.53;;;4.05;;
8044;SDS011;4065;48.754;9.982;2022-11-20T12:42:49;15.13;;;10.48;;
8044;SDS011;4065;48.754;9.982;2022-11-20T12:46:18;14.23;;;8.63;;
8044;SDS011;4065;48.754;9.982;2022-11-20T12:49:41;10.73;;;7.95;;
8044;SDS011;4065;48.754;9.982;2022-11-20T12:52:50;22.15;;;15.23;;
8044;SDS011;4065;48.754;9.982;2022-11-20T12:56:03;9.77;;;7.63;;
8044;SDS011;4065;48.754;9.982;2022-11-20T12:59:31;12.95;;;10.07;;
8044;SDS011;4065;48.754;9.982;2022-11-20T13:02:54;5.93;;;4.97;;
8044;SDS011;4065;48.754;9.982;2022-11-20T13:06:15;21.92;;;12.98;;
8044;SDS011;4065;48.754;9.982;2022-11-20T13:09:19;29.05;;;17.15;;
8044;SDS011;4065;48.754;9.982;2022-11-20T13:12:25;35.42;;;18.65;;
8044;SDS011;4065;48.754;9.982;2022-11-20T13:18:54;26.42;;;16.80;;
8044;SDS011;4065;48.754;9.982;2022-11-20T13:21:56;12.07;;;9.30;;
8044;SDS011;4065;48.754;9.982;2022-11-20T13:24:58;10.95;;;7.53;;
8044;SDS011;4065;48.754;9.982;2022-11-20T13:28:00;8.57;;;7.28;;
8044;SDS011;4065;48.754;9.982;2022-11-20T13:31:09;7.32;;;6.57;;
8044;SDS011;4065;48.754;9.982;2022-11-20T13:34:50;6.78;;;5.13;;
8044;SDS011;4065;48.754;9.982;2022-11-20T13:38:43;8.07;;;5.78;;
8044;SDS011;4065;48.754;9.982;2022-11-20T13:41:53;5.93;;;5.25;;
8044;SDS011;4065;48.754;9.982;2022-11-20T13:45:00;7.65;;;6.13;;
8044;SDS011;4065;48.754;9.982;2022-11-20T13:48:18;8.02;;;5.95;;
8044;SDS011;4065;48.754;9.982;2022-11-20T13:51:29;7.90;;;5.53;;
8044;SDS011;4065;48.754;9.982;2022-11-20T13:54:45;6.35;;;5.68;;
8044;SDS011;4065;48.754;9.982;2022-11-20T13:58:17;7.10;;;5.63;;
8044;SDS011;4065;48.754;9.982;2022-11-20T14:01:33;18.40;;;10.75;;
8044;SDS011;4065;48.754;9.982;2022-11-20T14:04:38;21.00;;;13.48;;
8044;SDS011;4065;48.754;9.982;2022-11-20T14:07:44;35.00;;;22.35;;
8044;SDS011;4065;48.754;9.982;2022-11-20T14:10:49;42.92;;;31.55;;
8044;SDS011;4065;48.754;9.982;2022-11-20T14:14:13;12.23;;;9.85;;
8044;SDS011;4065;48.754;9.982;2022-11-20T14:17:17;12.15;;;10.65;;
8044;SDS011;4065;48.754;9.982;2022-11-20T14:20:22;16.70;;;12.50;;
8044;SDS011;4065;48.754;9.982;2022-11-20T14:23:32;11.65;;;10.45;;
8044;SDS011;4065;48.754;9.982;2022-11-20T14:26:58;9.98;;;7.97;;
8044;SDS011;4065;48.754;9.982;2022-11-20T14:30:04;8.45;;;7.53;;
8044;SDS011;4065;48.754;9.982;2022-11-20T14:33:28;9.27;;;8.13;;
8044;SDS011;4065;48.754;9.982;2022-11-20T14:36:35;6.25;;;5.60;;
8044;SDS011;4065;48.754;9.982;2022-11-20T14:39:40;5.53;;;4.78;;
8044;SDS011;4065;48.754;9.982;2022-11-20T14:42:43;4.70;;;4.30;;
8044;SDS011;4065;48.754;9.982;2022-11-20T14:45:47;4.80;;;4.50;;
8044;SDS011;4065;48.754;9.982;2022-11-20T14:49:05;4.70;;;4.30;;
8044;SDS011;4065;48.754;9.982;2022-11-20T14:52:13;4.57;;;3.65;;
8044;SDS011;4065;48.754;9.982;2022-11-20T14:55:24;4.30;;;3.88;;
8044;SDS011;4065;48.754;9.982;2022-11-20T14:58:28;5.22;;;4.05;;
8044;SDS011;4065;48.754;9.982;2022-11-20T15:01:32;4.72;;;4.00;;
8044;SDS011;4065;48.754;9.982;2022-11-20T15:04:43;5.25;;;3.83;;
8044;SDS011;4065;48.754;9.982;2022-11-20T15:07:48;4.63;;;3.78;;
8044;SDS011;4065;48.754;9.982;2022-11-20T15:10:52;4.47;;;4.10;;
8044;SDS011;4065;48.754;9.982;2022-11-20T15:13:58;7.20;;;5.30;;
8044;SDS011;4065;48.754;9.982;2022-11-20T15:17:09;4.43;;;4.03;;
8044;SDS011;4065;48.754;9.982;2022-11-20T15:20:19;4.60;;;4.20;;
8044;SDS011;4065;48.754;9.982;2022-11-20T15:23:29;5.68;;;5.10;;
8044;SDS011;4065;48.754;9.982;2022-11-20T15:26:31;7.43;;;4.97;;
8044;SDS011;4065;48.754;9.982;2022-11-20T15:29:33;9.43;;;7.10;;
8044;SDS011;4065;48.754;9.982;2022-11-20T15:32:36;5.28;;;4.78;;
8044;SDS011;4065;48.754;9.982;2022-11-20T15:35:37;4.63;;;4.18;;
8044;SDS011;4065;48.754;9.982;2022-11-20T15:38:48;7.05;;;3.63;;
8044;SDS011;4065;48.754;9.982;2022-11-20T15:42:01;5.05;;;3.95;;
8044;SDS011;4065;48.754;9.982;2022-11-20T15:45:10;5.00;;;3.58;;
8044;SDS011;4065;48.754;9.982;2022-11-20T15:48:14;3.70;;;3.40;;
8044;SDS011;4065;48.754;9.982;2022-11-20T15:51:19;4.03;;;3.63;;
8044;SDS011;4065;48.754;9.982;2022-11-20T15:54:28;4.32;;;4.03;;
8044;SDS011;4065;48.754;9.982;2022-11-20T15:57:32;4.15;;;3.85;;
8044;SDS011;4065;48.754;9.982;2022-11-20T16:00:34;4.32;;;3.92;;
8044;SDS011;4065;48.754;9.982;2022-11-20T16:03:35;3.97;;;3.67;;
8044;SDS011;4065;48.754;9.982;2022-11-20T16:06:37;6.43;;;4.00;;
8044;SDS011;4065;48.754;9.982;2022-11-20T16:09:40;4.05;;;3.67;;
8044;SDS011;4065;48.754;9.982;2022-11-20T16:12:42;4.68;;;4.05;;
8044;SDS011;4065;48.754;9.982;2022-11-20T16:16:01;4.47;;;4.05;;
8044;SDS011;4065;48.754;9.982;2022-11-20T16:19:08;8.30;;;5.50;;
8044;SDS011;4065;48.754;9.982;2022-11-20T16:22:11;6.60;;;5.10;;
8044;SDS011;4065;48.754;9.982;2022-11-20T16:25:14;7.47;;;5.05;;
8044;SDS011;4065;48.754;9.982;2022-11-20T16:28:16;15.98;;;10.93;;
8044;SDS011;4065;48.754;9.982;2022-11-20T16:31:18;9.63;;;8.20;;
8044;SDS011;4065;48.754;9.982;2022-11-20T16:34:21;6.85;;;6.20;;
8044;SDS011;4065;48.754;9.982;2022-11-20T16:37:22;6.60;;;6.00;;
8044;SDS011;4065;48.754;9.982;2022-11-20T16:40:25;6.07;;;5.47;;
8044;SDS011;4065;48.754;9.982;2022-11-20T16:43:27;11.18;;;8.20;;
8044;SDS011;4065;48.754;9.982;2022-11-20T16:46:29;9.68;;;7.72;;
8044;SDS011;4065;48.754;9.982;2022-11-20T16:49:32;15.60;;;14.07;;
8044;SDS011;4065;48.754;9.982;2022-11-20T16:52:34;8.15;;;6.88;;
8044;SDS011;4065;48.754;9.982;2022-11-20T16:55:37;7.32;;;6.63;;
8044;SDS011;4065;48.754;9.982;2022-11-20T16:58:39;12.63;;;8.77;;
8044;SDS011;4065;48.754;9.982;2022-11-20T17:01:41;8.82;;;7.55;;
8044;SDS011;4065;48.754;9.982;2022-11-20T17:04:43;12.90;;;9.77;;
8044;SDS011;4065;48.754;9.982;2022-11-20T17:07:44;19.45;;;15.88;;
8044;SDS011;4065;48.754;9.982;2022-11-20T17:10:47;11.73;;;10.50;;
8044;SDS011;4065;48.754;9.982;2022-11-20T17:13:49;9.70;;;8.80;;
8044;SDS011;4065;48.754;9.982;2022-11-20T17:16:51;9.07;;;8.07;;
8044;SDS011;4065;48.754;9.982;2022-11-20T17:19:53;23.65;;;12.43;;
8044;SDS011;4065;48.754;9.982;2022-11-20T17:22:55;15.00;;;8.98;;
8044;SDS011;4065;48.754;9.982;2022-11-20T17:26:02;15.68;;;8.40;;
8044;SDS011;4065;48.754;9.982;2022-11-20T17:29:07;9.57;;;7.30;;
8044;SDS011;4065;48.754;9.982;2022-11-20T17:32:10;7.15;;;6.20;;
8044;SDS011;4065;48.754;9.982;2022-11-20T17:35:11;7.65;;;6.85;;
8044;SDS011;4065;48.754;9.982;2022-11-20T17:38:13;7.32;;;6.60;;
8044;SDS011;4065;48.754;9.982;2022-11-20T17:41:17;7.97;;;7.15;;
8044;SDS011;4065;48.754;9.982;2022-11-20T17:44:21;12.05;;;7.85;;
8044;SDS011;4065;48.754;9.982;2022-11-20T17:47:23;14.52;;;8.98;;
8044;SDS011;4065;48.754;9.982;2022-11-20T17:50:25;32.90;;;18.15;;
8044;SDS011;4065;48.754;9.982;2022-11-20T17:53:31;34.03;;;17.30;;
8044;SDS011;4065;48.754;9.982;2022-11-20T17:56:36;34.05;;;16.80;;
8044;SDS011;4065;48.754;9.982;2022-11-20T17:59:55;30.92;;;17.10;;
8044;SDS011;4065;48.754;9.982;2022-11-20T18:02:57;40.40;;;21.38;;
8044;SDS011;4065;48.754;9.982;2022-11-20T18:06:06;101.03;;;42.97;;
8044;SDS011;4065;48.754;9.982;2022-11-20T18:09:08;27.08;;;18.00;;
8044;SDS011;4065;48.754;9.982;2022-11-20T18:12:11;19.38;;;12.77;;
8044;SDS011;4065;48.754;9.982;2022-11-20T18:15:13;10.05;;;8.52;;
8044;SDS011;4065;48.754;9.982;2022-11-20T18:18:14;10.38;;;8.15;;
8044;SDS011;4065;48.754;9.982;2022-11-20T18:21:16;12.23;;;10.23;;
8044;SDS011;4065;48.754;9.982;2022-11-20T18:24:18;14.77;;;11.75;;
8044;SDS011;4065;48.754;9.982;2022-11-20T18:27:21;17.85;;;15.88;;
8044;SDS011;4065;48.754;9.982;2022-11-20T18:30:23;13.02;;;10.75;;
8044;SDS011;4065;48.754;9.982;2022-11-20T18:33:24;14.27;;;11.55;;
8044;SDS011;4065;48.754;9.982;2022-11-20T18:36:27;11.48;;;9.40;;
8044;SDS011;4065;48.754;9.982;2022-11-20T18:39:29;9.98;;;8.10;;
8044;SDS011;4065;48.754;9.982;2022-11-20T18:42:34;9.25;;;7.35;;
8044;SDS011;4065;48.754;9.982;2022-11-20T18:46:00;16.23;;;13.75;;
8044;SDS011;4065;48.754;9.982;2022-11-20T18:49:02;20.30;;;13.77;;
8044;SDS011;4065;48.754;9.982;2022-11-20T18:52:03;9.27;;;6.85;;
8044;SDS011;4065;48.754;9.982;2022-11-20T18:55:05;8.02;;;5.97;;
8044;SDS011;4065;48.754;9.982;2022-11-20T18:58:09;11.48;;;7.35;;
8044;SDS011;4065;48.754;9.982;2022-11-20T19:01:11;11.35;;;8.40;;
8044;SDS011;4065;48.754;9.982;2022-11-20T19:04:13;15.27;;;9.73;;
8044;SDS011;4065;48.754;9.982;2022-11-20T19:07:16;13.55;;;8.40;;
8044;SDS011;4065;48.754;9.982;2022-11-20T19:10:18;13.02;;;8.60;;